sensor_id;sensor_type;location;lat;lon;timestamp;pressure;altitude;pressure_sealevel;temperature;humidity
49341;BME280;35209;51.050;13.678;2023-04-28T00:00:43;100259.16;;;4.14;83.71
49341;BME280;35209;51.050;13.678;2023-04-28T00:05:45;100259.13;;;4.34;82.42
49341;BME280;35209;51.050;13.678;2023-04-28T00:10:48;100246.16;;;4.07;84.13
49341;BME280;35209;51.050;13.678;2023-04-28T00:15:49;100245.22;;;4.24;83.85
49341;BME280;35209;51.050;13.678;2023-04-28T00:20:56;100243.50;;;4.25;83.23
49341;BME280;35209;51.050;13.678;2023-04-28T00:25:58;100241.75;;;4.33;83.38
49341;BME280;35209;51.050;13.678;2023-04-28T00:31:00;100230.50;;;4.23;83.54
49341;BME280;35209;51.050;13.678;2023-04-28T00:36:01;100218.44;;;3.99;85.23
49341;BME280;35209;51.050;13.678;2023-04-28T00:41:05;100203.72;;;3.75;86.57
49341;BME280;35209;51.050;13.678;2023-04-28T00:46:07;100202.81;;;3.96;86.29
49341;BME280;35209;51.050;13.678;2023-04-28T00:51:08;100195.00;;;3.98;85.27
49341;BME280;35209;51.050;13.678;2023-04-28T00:56:10;100196.72;;;4.05;84.37
49341;BME280;35209;51.050;13.678;2023-04-28T01:01:13;100186.38;;;3.88;85.28
49341;BME280;35209;51.050;13.678;2023-04-28T01:06:15;100177.78;;;3.59;87.40
49341;BME280;35209;51.050;13.678;2023-04-28T01:11:18;100174.31;;;3.47;88.87
49341;BME280;35209;51.050;13.678;2023-04-28T01:16:38;100172.56;;;3.56;88.16
49341;BME280;35209;51.050;13.678;2023-04-28T01:21:42;100169.94;;;3.65;87.04
49341;BME280;35209;51.050;13.678;2023-04-28T01:26:58;100174.25;;;3.70;84.83
49341;BME280;35209;51.050;13.678;2023-04-28T01:32:01;100165.56;;;3.80;84.01
49341;BME280;35209;51.050;13.678;2023-04-28T01:37:03;100149.94;;;3.93;81.62
49341;BME280;35209;51.050;13.678;2023-04-28T01:42:05;100150.88;;;3.78;82.07
49341;BME280;35209;51.050;13.678;2023-04-28T01:47:07;100148.25;;;3.81;82.24
49341;BME280;35209;51.050;13.678;2023-04-28T01:52:09;100132.66;;;3.83;81.42
49341;BME280;35209;51.050;13.678;2023-04-28T01:57:11;100136.09;;;3.89;81.21
49341;BME280;35209;51.050;13.678;2023-04-28T02:02:13;100122.28;;;3.73;82.11
49341;BME280;35209;51.050;13.678;2023-04-28T02:07:16;100134.44;;;3.61;83.18
49341;BME280;35209;51.050;13.678;2023-04-28T02:12:17;100132.66;;;3.70;83.30
49341;BME280;35209;51.050;13.678;2023-04-28T02:17:19;100122.28;;;3.70;84.08
49341;BME280;35209;51.050;13.678;2023-04-28T02:22:22;100112.75;;;3.69;84.59
49341;BME280;35209;51.050;13.678;2023-04-28T02:27:23;100114.44;;;3.79;82.66
49341;BME280;35209;51.050;13.678;2023-04-28T02:32:25;100104.91;;;3.75;83.50
49341;BME280;35209;51.050;13.678;2023-04-28T02:37:27;100106.66;;;3.78;83.48
49341;BME280;35209;51.050;13.678;2023-04-28T02:42:28;100104.06;;;3.81;83.57
49341;BME280;35209;51.050;13.678;2023-04-28T02:47:30;100089.28;;;3.85;83.52
49341;BME280;35209;51.050;13.678;2023-04-28T02:52:32;100088.38;;;4.04;81.77
49341;BME280;35209;51.050;13.678;2023-04-28T02:57:34;100081.50;;;3.86;82.13
49341;BME280;35209;51.050;13.678;2023-04-28T03:02:36;100087.56;;;3.87;82.05
49341;BME280;35209;51.050;13.678;2023-04-28T03:07:38;100082.31;;;4.00;80.16
49341;BME280;35209;51.050;13.678;2023-04-28T03:12:40;100075.31;;;4.13;80.49
49341;BME280;35209;51.050;13.678;2023-04-28T03:17:42;100063.91;;;4.39;78.97
49341;BME280;35209;51.050;13.678;2023-04-28T03:22:44;100052.72;;;4.20;77.74
49341;BME280;35209;51.050;13.678;2023-04-28T03:27:46;100045.88;;;4.02;78.62
49341;BME280;35209;51.050;13.678;2023-04-28T03:32:47;100038.13;;;3.94;79.97
49341;BME280;35209;51.050;13.678;2023-04-28T03:37:49;100042.41;;;4.04;79.01
49341;BME280;35209;51.050;13.678;2023-04-28T03:42:51;100044.91;;;4.20;77.75
49341;BME280;35209;51.050;13.678;2023-04-28T03:48:01;100043.28;;;4.03;78.38
49341;BME280;35209;51.050;13.678;2023-04-28T03:53:03;100031.16;;;3.96;78.80
49341;BME280;35209;51.050;13.678;2023-04-28T03:58:06;100045.00;;;4.08;77.83
49341;BME280;35209;51.050;13.678;2023-04-28T04:03:08;100043.91;;;4.41;74.56
49341;BME280;35209;51.050;13.678;2023-04-28T04:08:10;100024.00;;;4.37;75.77
49341;BME280;35209;51.050;13.678;2023-04-28T04:13:12;100021.16;;;4.67;73.61
49341;BME280;35209;51.050;13.678;2023-04-28T04:18:17;100015.72;;;4.95;71.24
49341;BME280;35209;51.050;13.678;2023-04-28T04:23:41;100006.00;;;5.14;70.13
49341;BME280;35209;51.050;13.678;2023-04-28T04:28:43;100003.34;;;5.18;69.52
49341;BME280;35209;51.050;13.678;2023-04-28T04:33:44;99996.91;;;5.48;67.66
49341;BME280;35209;51.050;13.678;2023-04-28T04:38:47;99995.97;;;5.55;67.91
49341;BME280;35209;51.050;13.678;2023-04-28T04:43:51;99994.09;;;5.67;67.20
49341;BME280;35209;51.050;13.678;2023-04-28T04:48:53;99990.66;;;5.62;67.92
49341;BME280;35209;51.050;13.678;2023-04-28T04:53:55;99989.81;;;5.63;68.80
49341;BME280;35209;51.050;13.678;2023-04-28T04:58:57;99985.22;;;5.81;66.99
49341;BME280;35209;51.050;13.678;2023-04-28T05:04:19;99980.06;;;5.75;67.56
49341;BME280;35209;51.050;13.678;2023-04-28T05:09:23;99979.84;;;5.95;66.78
49341;BME280;35209;51.050;13.678;2023-04-28T05:14:25;99976.16;;;6.09;66.50
49341;BME280;35209;51.050;13.678;2023-04-28T05:19:27;99968.31;;;6.12;66.67
49341;BME280;35209;51.050;13.678;2023-04-28T05:24:29;99964.41;;;6.39;64.96
49341;BME280;35209;51.050;13.678;2023-04-28T05:29:31;99960.72;;;6.50;64.88
49341;BME280;35209;51.050;13.678;2023-04-28T05:34:33;99944.84;;;6.64;63.83
49341;BME280;35209;51.050;13.678;2023-04-28T05:39:35;99945.88;;;6.55;66.78
49341;BME280;35209;51.050;13.678;2023-04-28T05:44:39;99940.16;;;6.81;64.28
49341;BME280;35209;51.050;13.678;2023-04-28T05:49:51;99942.44;;;7.01;62.94
49341;BME280;35209;51.050;13.678;2023-04-28T05:54:53;99943.78;;;7.21;62.66
49341;BME280;35209;51.050;13.678;2023-04-28T05:59:55;99933.16;;;7.30;62.97
49341;BME280;35209;51.050;13.678;2023-04-28T06:04:57;99934.06;;;7.71;62.01
49341;BME280;35209;51.050;13.678;2023-04-28T06:09:59;99933.53;;;8.31;59.28
49341;BME280;35209;51.050;13.678;2023-04-28T06:15:02;99938.59;;;8.74;60.29
49341;BME280;35209;51.050;13.678;2023-04-28T06:20:05;99936.50;;;9.21;56.91
49341;BME280;35209;51.050;13.678;2023-04-28T06:25:07;99929.47;;;9.22;56.90
49341;BME280;35209;51.050;13.678;2023-04-28T06:30:17;99927.72;;;9.21;57.30
49341;BME280;35209;51.050;13.678;2023-04-28T06:35:22;99931.22;;;9.52;56.14
49341;BME280;35209;51.050;13.678;2023-04-28T06:40:24;99921.84;;;9.44;59.27
49341;BME280;35209;51.050;13.678;2023-04-28T06:45:29;99916.28;;;9.84;54.73
49341;BME280;35209;51.050;13.678;2023-04-28T06:50:31;99915.84;;;9.98;55.46
49341;BME280;35209;51.050;13.678;2023-04-28T06:55:33;99915.13;;;10.21;53.42
49341;BME280;35209;51.050;13.678;2023-04-28T07:00:35;99911.28;;;10.32;53.64
49341;BME280;35209;51.050;13.678;2023-04-28T07:05:37;99904.56;;;10.50;55.16
49341;BME280;35209;51.050;13.678;2023-04-28T07:10:38;99900.19;;;10.76;54.84
49341;BME280;35209;51.050;13.678;2023-04-28T07:15:40;99893.34;;;11.44;50.63
49341;BME280;35209;51.050;13.678;2023-04-28T07:20:42;99888.44;;;11.80;50.56
49341;BME280;35209;51.050;13.678;2023-04-28T07:25:44;99887.50;;;11.81;50.28
49341;BME280;35209;51.050;13.678;2023-04-28T07:30:45;99887.25;;;11.89;50.00
49341;BME280;35209;51.050;13.678;2023-04-28T07:35:47;99876.91;;;11.84;52.36
49341;BME280;35209;51.050;13.678;2023-04-28T07:40:50;99868.94;;;12.07;50.96
49341;BME280;35209;51.050;13.678;2023-04-28T07:45:52;99862.88;;;12.48;49.69
49341;BME280;35209;51.050;13.678;2023-04-28T07:50:54;99864.31;;;12.96;46.88
49341;BME280;35209;51.050;13.678;2023-04-28T07:55:56;99857.19;;;12.98;47.62
49341;BME280;35209;51.050;13.678;2023-04-28T08:00:57;99856.06;;;13.43;48.14
49341;BME280;35209;51.050;13.678;2023-04-28T08:05:59;99845.06;;;13.52;46.85
49341;BME280;35209;51.050;13.678;2023-04-28T08:11:01;99845.69;;;13.76;45.14
49341;BME280;35209;51.050;13.678;2023-04-28T08:16:04;99845.28;;;14.02;45.27
49341;BME280;35209;51.050;13.678;2023-04-28T08:21:06;99837.16;;;14.42;44.71
49341;BME280;35209;51.050;13.678;2023-04-28T08:26:07;99831.50;;;14.32;44.27
49341;BME280;35209;51.050;13.678;2023-04-28T08:31:09;99841.69;;;14.39;44.55
49341;BME280;35209;51.050;13.678;2023-04-28T08:36:11;99830.88;;;14.44;44.20
49341;BME280;35209;51.050;13.678;2023-04-28T08:41:15;99821.19;;;14.43;44.14
49341;BME280;35209;51.050;13.678;2023-04-28T08:46:20;99813.63;;;14.54;44.91
49341;BME280;35209;51.050;13.678;2023-04-28T08:51:33;99819.88;;;14.86;45.08
49341;BME280;35209;51.050;13.678;2023-04-28T08:56:36;99812.13;;;14.99;44.50
49341;BME280;35209;51.050;13.678;2023-04-28T09:01:39;99813.53;;;15.06;43.42
49341;BME280;35209;51.050;13.678;2023-04-28T09:06:41;99804.06;;;15.67;44.70
49341;BME280;35209;51.050;13.678;2023-04-28T09:12:09;99804.13;;;15.66;43.24
49341;BME280;35209;51.050;13.678;2023-04-28T09:17:13;99791.47;;;15.71;43.97
49341;BME280;35209;51.050;13.678;2023-04-28T09:22:15;99790.59;;;15.86;42.71
49341;BME280;35209;51.050;13.678;2023-04-28T09:27:27;99790.78;;;16.13;41.74
49341;BME280;35209;51.050;13.678;2023-04-28T09:32:29;99792.63;;;16.27;43.27
49341;BME280;35209;51.050;13.678;2023-04-28T09:37:32;99788.16;;;16.27;42.52
49341;BME280;35209;51.050;13.678;2023-04-28T09:42:43;99786.06;;;16.48;40.96
49341;BME280;35209;51.050;13.678;2023-04-28T09:47:47;99778.34;;;16.29;41.04
49341;BME280;35209;51.050;13.678;2023-04-28T09:52:56;99783.00;;;16.40;39.83
49341;BME280;35209;51.050;13.678;2023-04-28T09:58:02;99781.91;;;16.28;41.09
49341;BME280;35209;51.050;13.678;2023-04-28T10:03:07;99774.16;;;16.25;40.66
49341;BME280;35209;51.050;13.678;2023-04-28T10:08:10;99778.63;;;16.25;41.07
49341;BME280;35209;51.050;13.678;2023-04-28T10:13:17;99783.81;;;15.96;41.61
49341;BME280;35209;51.050;13.678;2023-04-28T10:18:21;99783.94;;;15.79;43.01
49341;BME280;35209;51.050;13.678;2023-04-28T10:23:51;99800.41;;;15.52;45.52
49341;BME280;35209;51.050;13.678;2023-04-28T10:28:58;99798.66;;;15.04;52.63
49341;BME280;35209;51.050;13.678;2023-04-28T10:34:20;99804.34;;;14.80;56.76
49341;BME280;35209;51.050;13.678;2023-04-28T10:39:22;99803.03;;;14.72;58.86
49341;BME280;35209;51.050;13.678;2023-04-28T10:55:26;99799.81;;;13.22;71.91
49341;BME280;35209;51.050;13.678;2023-04-28T11:00:29;99809.53;;;13.01;77.37
49341;BME280;35209;51.050;13.678;2023-04-28T11:05:31;99808.00;;;13.16;77.02
49341;BME280;35209;51.050;13.678;2023-04-28T11:16:15;99808.13;;;13.33;74.02
49341;BME280;35209;51.050;13.678;2023-04-28T11:21:19;99810.81;;;13.31;79.10
49341;BME280;35209;51.050;13.678;2023-04-28T11:26:21;99820.94;;;13.41;81.10
49341;BME280;35209;51.050;13.678;2023-04-28T11:31:24;99817.06;;;13.67;78.16
49341;BME280;35209;51.050;13.678;2023-04-28T11:36:29;99814.16;;;13.73;72.57
49341;BME280;35209;51.050;13.678;2023-04-28T11:41:34;99820.59;;;13.48;72.65
49341;BME280;35209;51.050;13.678;2023-04-28T11:46:47;99817.13;;;13.29;68.75
49341;BME280;35209;51.050;13.678;2023-04-28T11:51:56;99818.69;;;13.33;71.54
49341;BME280;35209;51.050;13.678;2023-04-28T11:57:00;99815.50;;;13.62;75.83
49341;BME280;35209;51.050;13.678;2023-04-28T12:02:06;99809.09;;;13.68;71.28
49341;BME280;35209;51.050;13.678;2023-04-28T12:12:28;99791.97;;;14.11;68.15
49341;BME280;35209;51.050;13.678;2023-04-28T12:17:50;99800.03;;;13.91;67.87
49341;BME280;35209;51.050;13.678;2023-04-28T12:22:52;99795.50;;;13.76;69.16
49341;BME280;35209;51.050;13.678;2023-04-28T12:28:02;99792.31;;;13.69;70.42
49341;BME280;35209;51.050;13.678;2023-04-28T12:33:04;99784.44;;;14.04;69.65
49341;BME280;35209;51.050;13.678;2023-04-28T12:38:10;99783.13;;;14.30;64.89
49341;BME280;35209;51.050;13.678;2023-04-28T12:43:12;99783.13;;;13.95;68.53
49341;BME280;35209;51.050;13.678;2023-04-28T12:48:14;99791.50;;;13.67;70.60
49341;BME280;35209;51.050;13.678;2023-04-28T12:53:15;99771.94;;;13.71;67.02
49341;BME280;35209;51.050;13.678;2023-04-28T12:58:17;99773.97;;;13.66;68.35
49341;BME280;35209;51.050;13.678;2023-04-28T13:03:19;99770.59;;;13.62;74.24
49341;BME280;35209;51.050;13.678;2023-04-28T13:08:22;99760.25;;;13.58;73.88
49341;BME280;35209;51.050;13.678;2023-04-28T13:13:24;99763.47;;;13.65;71.45
49341;BME280;35209;51.050;13.678;2023-04-28T13:18:26;99762.31;;;13.34;74.82
49341;BME280;35209;51.050;13.678;2023-04-28T13:23:28;99751.75;;;13.15;75.87
49341;BME280;35209;51.050;13.678;2023-04-28T13:28:29;99741.22;;;13.13;76.57
49341;BME280;35209;51.050;13.678;2023-04-28T13:33:31;99739.31;;;12.98;74.84
49341;BME280;35209;51.050;13.678;2023-04-28T13:38:33;99730.47;;;12.99;77.40
49341;BME280;35209;51.050;13.678;2023-04-28T13:43:35;99723.06;;;13.07;79.24
49341;BME280;35209;51.050;13.678;2023-04-28T13:48:38;99719.78;;;13.02;77.13
49341;BME280;35209;51.050;13.678;2023-04-28T13:53:41;99708.78;;;12.74;78.96
49341;BME280;35209;51.050;13.678;2023-04-28T13:58:42;99705.59;;;12.86;78.72
49341;BME280;35209;51.050;13.678;2023-04-28T14:03:44;99707.22;;;12.70;79.85
49341;BME280;35209;51.050;13.678;2023-04-28T14:08:46;99707.00;;;12.55;84.22
49341;BME280;35209;51.050;13.678;2023-04-28T14:13:48;99693.81;;;12.55;81.31
49341;BME280;35209;51.050;13.678;2023-04-28T14:18:50;99691.88;;;12.20;87.08
49341;BME280;35209;51.050;13.678;2023-04-28T14:23:52;99682.63;;;12.30;84.57
49341;BME280;35209;51.050;13.678;2023-04-28T14:28:54;99677.22;;;12.53;81.43
49341;BME280;35209;51.050;13.678;2023-04-28T14:33:56;99671.72;;;12.58;83.92
49341;BME280;35209;51.050;13.678;2023-04-28T14:38:58;99669.66;;;12.65;83.65
49341;BME280;35209;51.050;13.678;2023-04-28T14:44:00;99675.31;;;12.76;81.11
49341;BME280;35209;51.050;13.678;2023-04-28T14:49:02;99659.38;;;12.96;80.74
49341;BME280;35209;51.050;13.678;2023-04-28T14:54:03;99659.38;;;12.96;82.39
49341;BME280;35209;51.050;13.678;2023-04-28T14:59:05;99641.66;;;12.81;79.62
49341;BME280;35209;51.050;13.678;2023-04-28T15:04:07;99640.22;;;12.93;82.10
49341;BME280;35209;51.050;13.678;2023-04-28T15:09:10;99637.19;;;13.00;80.90
49341;BME280;35209;51.050;13.678;2023-04-28T15:14:12;99635.19;;;13.05;78.49
49341;BME280;35209;51.050;13.678;2023-04-28T15:19:14;99625.22;;;13.12;76.02
49341;BME280;35209;51.050;13.678;2023-04-28T15:24:18;99633.84;;;12.97;76.80
49341;BME280;35209;51.050;13.678;2023-04-28T15:29:21;99626.09;;;12.94;77.93
49341;BME280;35209;51.050;13.678;2023-04-28T15:34:23;99622.16;;;13.02;77.36
49341;BME280;35209;51.050;13.678;2023-04-28T15:39:25;99612.31;;;13.06;77.40
49341;BME280;35209;51.050;13.678;2023-04-28T15:44:28;99610.44;;;13.27;73.41
49341;BME280;35209;51.050;13.678;2023-04-28T15:49:31;99601.97;;;13.01;74.67
49341;BME280;35209;51.050;13.678;2023-04-28T15:54:33;99600.44;;;12.97;74.43
49341;BME280;35209;51.050;13.678;2023-04-28T15:59:35;99600.22;;;13.02;75.16
49341;BME280;35209;51.050;13.678;2023-04-28T16:04:37;99594.47;;;13.11;72.12
49341;BME280;35209;51.050;13.678;2023-04-28T16:09:39;99591.50;;;13.00;72.83
49341;BME280;35209;51.050;13.678;2023-04-28T16:14:41;99593.53;;;12.76;75.82
49341;BME280;35209;51.050;13.678;2023-04-28T16:19:43;99600.16;;;12.84;75.45
49341;BME280;35209;51.050;13.678;2023-04-28T16:24:45;99590.53;;;12.65;78.22
49341;BME280;35209;51.050;13.678;2023-04-28T16:29:47;99590.41;;;12.68;75.37
49341;BME280;35209;51.050;13.678;2023-04-28T16:34:49;99584.22;;;12.50;76.55
49341;BME280;35209;51.050;13.678;2023-04-28T16:39:52;99577.09;;;12.52;76.00
49341;BME280;35209;51.050;13.678;2023-04-28T16:44:54;99571.75;;;12.34;77.04
49341;BME280;35209;51.050;13.678;2023-04-28T16:49:56;99571.94;;;12.30;76.47
49341;BME280;35209;51.050;13.678;2023-04-28T16:54:58;99566.03;;;12.25;78.36
49341;BME280;35209;51.050;13.678;2023-04-28T17:00:01;99555.38;;;12.28;76.79
49341;BME280;35209;51.050;13.678;2023-04-28T17:05:02;99549.88;;;12.32;75.17
49341;BME280;35209;51.050;13.678;2023-04-28T17:10:04;99545.75;;;12.46;74.11
49341;BME280;35209;51.050;13.678;2023-04-28T17:15:07;99542.97;;;12.30;75.72
49341;BME280;35209;51.050;13.678;2023-04-28T17:20:10;99543.78;;;12.13;76.79
49341;BME280;35209;51.050;13.678;2023-04-28T17:25:12;99541.63;;;12.40;73.68
49341;BME280;35209;51.050;13.678;2023-04-28T17:30:14;99543.69;;;12.33;74.01
49341;BME280;35209;51.050;13.678;2023-04-28T17:35:16;99540.91;;;12.36;72.89
49341;BME280;35209;51.050;13.678;2023-04-28T17:40:18;99540.31;;;12.30;72.77
49341;BME280;35209;51.050;13.678;2023-04-28T17:45:24;99532.63;;;12.25;73.87
49341;BME280;35209;51.050;13.678;2023-04-28T17:50:26;99523.88;;;12.25;74.08
49341;BME280;35209;51.050;13.678;2023-04-28T17:55:29;99523.25;;;12.20;74.63
49341;BME280;35209;51.050;13.678;2023-04-28T18:00:30;99528.50;;;12.20;74.76
49341;BME280;35209;51.050;13.678;2023-04-28T18:05:32;99537.19;;;12.22;74.19
49341;BME280;35209;51.050;13.678;2023-04-28T18:10:36;99534.41;;;12.25;74.20
49341;BME280;35209;51.050;13.678;2023-04-28T18:15:38;99538.53;;;12.30;74.20
49341;BME280;35209;51.050;13.678;2023-04-28T18:20:41;99542.19;;;12.09;75.60
49341;BME280;35209;51.050;13.678;2023-04-28T18:25:43;99537.03;;;11.87;76.94
49341;BME280;35209;51.050;13.678;2023-04-28T18:30:44;99538.19;;;11.80;78.30
49341;BME280;35209;51.050;13.678;2023-04-28T18:35:46;99536.75;;;11.73;79.33
49341;BME280;35209;51.050;13.678;2023-04-28T18:40:48;99541.75;;;11.79;79.59
49341;BME280;35209;51.050;13.678;2023-04-28T18:45:50;99535.22;;;11.69;80.91
49341;BME280;35209;51.050;13.678;2023-04-28T18:50:52;99536.34;;;12.02;77.59
49341;BME280;35209;51.050;13.678;2023-04-28T18:55:55;99549.44;;;12.04;77.05
49341;BME280;35209;51.050;13.678;2023-04-28T19:00:58;99554.22;;;12.15;76.63
49341;BME280;35209;51.050;13.678;2023-04-28T19:06:00;99553.28;;;12.16;76.17
49341;BME280;35209;51.050;13.678;2023-04-28T19:11:01;99553.78;;;12.05;77.47
49341;BME280;35209;51.050;13.678;2023-04-28T19:16:03;99555.06;;;11.96;78.51
49341;BME280;35209;51.050;13.678;2023-04-28T19:21:05;99554.63;;;11.86;79.65
49341;BME280;35209;51.050;13.678;2023-04-28T19:26:08;99550.41;;;11.82;79.70
49341;BME280;35209;51.050;13.678;2023-04-28T19:31:10;99547.97;;;11.78;80.50
49341;BME280;35209;51.050;13.678;2023-04-28T19:36:12;99552.09;;;11.63;82.64
49341;BME280;35209;51.050;13.678;2023-04-28T19:41:14;99542.47;;;11.43;83.94
49341;BME280;35209;51.050;13.678;2023-04-28T19:46:16;99542.69;;;11.37;84.71
49341;BME280;35209;51.050;13.678;2023-04-28T19:51:18;99528.88;;;11.32;85.82
49341;BME280;35209;51.050;13.678;2023-04-28T19:56:20;99522.56;;;11.56;84.77
49341;BME280;35209;51.050;13.678;2023-04-28T20:01:21;99537.03;;;11.67;84.41
49341;BME280;35209;51.050;13.678;2023-04-28T20:06:23;99519.88;;;11.58;84.34
49341;BME280;35209;51.050;13.678;2023-04-28T20:11:25;99518.41;;;11.51;85.18
49341;BME280;35209;51.050;13.678;2023-04-28T20:16:27;99530.59;;;11.53;85.81
49341;BME280;35209;51.050;13.678;2023-04-28T20:21:29;99526.44;;;11.68;84.91
49341;BME280;35209;51.050;13.678;2023-04-28T20:26:31;99525.56;;;11.68;85.79
49341;BME280;35209;51.050;13.678;2023-04-28T20:31:33;99511.22;;;11.75;84.43
49341;BME280;35209;51.050;13.678;2023-04-28T20:36:35;99508.81;;;11.50;86.11
49341;BME280;35209;51.050;13.678;2023-04-28T20:41:39;99501.78;;;11.50;85.90
49341;BME280;35209;51.050;13.678;2023-04-28T20:46:44;99496.50;;;11.50;86.80
49341;BME280;35209;51.050;13.678;2023-04-28T20:51:45;99496.34;;;11.34;87.55
49341;BME280;35209;51.050;13.678;2023-04-28T20:56:48;99494.16;;;11.24;89.11
49341;BME280;35209;51.050;13.678;2023-04-28T21:01:49;99488.63;;;10.89;91.29
49341;BME280;35209;51.050;13.678;2023-04-28T21:06:51;99480.97;;;10.63;93.32
49341;BME280;35209;51.050;13.678;2023-04-28T21:11:53;99497.16;;;10.52;95.33
49341;BME280;35209;51.050;13.678;2023-04-28T21:16:57;99488.13;;;10.59;95.86
49341;BME280;35209;51.050;13.678;2023-04-28T21:21:58;99485.13;;;10.68;96.25
49341;BME280;35209;51.050;13.678;2023-04-28T21:27:00;99487.19;;;10.60;96.58
49341;BME280;35209;51.050;13.678;2023-04-28T21:32:03;99482.03;;;10.79;96.53
49341;BME280;35209;51.050;13.678;2023-04-28T21:37:05;99481.09;;;10.59;96.71
49341;BME280;35209;51.050;13.678;2023-04-28T21:42:07;99481.56;;;10.47;97.99
49341;BME280;35209;51.050;13.678;2023-04-28T21:47:23;99477.59;;;10.59;98.20
49341;BME280;35209;51.050;13.678;2023-04-28T21:52:25;99481.94;;;10.60;99.13
49341;BME280;35209;51.050;13.678;2023-04-28T21:57:27;99476.75;;;10.58;99.23
49341;BME280;35209;51.050;13.678;2023-04-28T22:02:39;99468.91;;;10.57;99.95
49341;BME280;35209;51.050;13.678;2023-04-28T22:07:41;99466.41;;;10.76;99.29
49341;BME280;35209;51.050;13.678;2023-04-28T22:12:43;99455.00;;;10.75;99.28
49341;BME280;35209;51.050;13.678;2023-04-28T22:17:45;99454.78;;;10.81;98.54
49341;BME280;35209;51.050;13.678;2023-04-28T22:22:47;99444.97;;;11.05;95.74
49341;BME280;35209;51.050;13.678;2023-04-28T22:27:48;99443.41;;;11.22;94.20
49341;BME280;35209;51.050;13.678;2023-04-28T22:32:50;99469.88;;;10.97;96.32
49341;BME280;35209;51.050;13.678;2023-04-28T22:37:52;99470.81;;;10.96;97.32
49341;BME280;35209;51.050;13.678;2023-04-28T22:42:54;99478.44;;;10.81;98.23
49341;BME280;35209;51.050;13.678;2023-04-28T22:47:55;99472.50;;;10.76;99.66
49341;BME280;35209;51.050;13.678;2023-04-28T22:52:57;99473.84;;;11.07;96.46
49341;BME280;35209;51.050;13.678;2023-04-28T22:57:59;99478.13;;;10.89;99.41
49341;BME280;35209;51.050;13.678;2023-04-28T23:03:01;99457.50;;;10.78;100.00
49341;BME280;35209;51.050;13.678;2023-04-28T23:08:05;99442.09;;;11.11;100.00
49341;BME280;35209;51.050;13.678;2023-04-28T23:13:06;99449.50;;;10.81;100.00
49341;BME280;35209;51.050;13.678;2023-04-28T23:18:08;99437.53;;;10.74;100.00
49341;BME280;35209;51.050;13.678;2023-04-28T23:23:10;99426.13;;;10.53;100.00
49341;BME280;35209;51.050;13.678;2023-04-28T23:28:11;99428.22;;;10.67;100.00
49341;BME280;35209;51.050;13.678;2023-04-28T23:33:13;99411.66;;;10.43;100.00
49341;BME280;35209;51.050;13.678;2023-04-28T23:38:15;99412.13;;;10.32;100.00
49341;BME280;35209;51.050;13.678;2023-04-28T23:43:17;99413.63;;;10.16;100.00
49341;BME280;35209;51.050;13.678;2023-04-28T23:48:18;99422.34;;;10.17;100.00
49341;BME280;35209;51.050;13.678;2023-04-28T23:53:20;99420.44;;;9.98;100.00
49341;BME280;35209;51.050;13.678;2023-04-28T23:58:22;99417.28;;;10.12;100.00
